Time;durP1;ratioP1;P1;durP2;ratioP2;P2;SDS_P1;SDS_P2;PMS_P1;PMS_P2;Temp;Humidity;BMP_temperature;BMP_pressure;BME280_temperature;BME280_humidity;BME280_pressure;Samples;Min_cycle;Max_cycle;Signal;HPM_P1;HPM_P2
2024/02/04 00:00:48;;;;;;;0.43;0.43;;;;;;;12.28;77.34;102472.28;5060212;28;20102;-80
2024/02/04 00:03:14;;;;;;;0.52;0.52;;;;;;;12.35;77.32;102477.59;5078057;28;20040;-82
2024/02/04 00:05:44;;;;;;;0.75;0.75;;;;;;;12.12;78.21;102486.47;5076748;28;20021;-80
2024/02/04 00:08:11;;;;;;;0.63;0.63;;;;;;;12.30;77.82;102486.47;5059256;28;20035;-81
2024/02/04 00:10:37;;;;;;;1.10;1.10;;;;;;;12.34;77.50;102470.53;5075861;28;20563;-82
2024/02/04 00:13:03;;;;;;;0.38;0.38;;;;;;;12.33;77.66;102472.28;5059126;28;20043;-83
2024/02/04 00:15:29;;;;;;;0.52;0.52;;;;;;;12.43;77.02;102470.50;5067102;28;20033;-79
2024/02/04 00:17:55;;;;;;;0.98;0.98;;;;;;;12.48;76.74;102468.72;5059260;28;20086;-80
2024/02/04 00:20:24;;;;;;;0.22;0.22;;;;;;;12.57;76.70;102463.41;5073756;28;20119;-80
2024/02/04 00:22:50;;;;;;;0.10;0.10;;;;;;;12.48;76.45;102468.72;5064640;28;20188;-79
2024/02/04 00:25:19;;;;;;;0.10;0.10;;;;;;;12.58;76.14;102470.47;5070364;28;20020;-82
2024/02/04 00:27:45;;;;;;;3.30;1.88;;;;;;;12.50;76.92;102468.72;5065638;28;20199;-82
2024/02/04 00:30:14;;;;;;;0.45;0.45;;;;;;;12.56;76.43;102468.69;5067718;28;20024;-83
2024/02/04 00:32:40;;;;;;;3.20;1.95;;;;;;;12.56;76.61;102456.31;5069540;28;20021;-84
2024/02/04 00:35:07;;;;;;;0.10;0.10;;;;;;;12.53;77.08;102461.63;5066842;28;20054;-80
2024/02/04 00:37:33;;;;;;;6.28;0.75;;;;;;;12.59;77.19;102466.94;5067375;28;20156;-82
2024/02/04 00:39:59;;;;;;;0.10;0.10;;;;;;;12.57;77.36;102460.75;5059352;28;20028;-82
2024/02/04 00:42:25;;;;;;;0.30;0.30;;;;;;;12.60;76.81;102468.69;5060575;28;20044;-83
2024/02/04 00:44:52;;;;;;;0.30;0.30;;;;;;;12.71;77.10;102471.34;5076504;28;20050;-83
2024/02/04 00:47:18;;;;;;;0.17;0.17;;;;;;;12.77;76.93;102471.31;5079008;28;20119;-83
2024/02/04 00:49:44;;;;;;;0.20;0.20;;;;;;;12.80;76.08;102465.09;5070852;28;20025;-80
2024/02/04 00:52:10;;;;;;;0.10;0.10;;;;;;;12.80;76.23;102454.47;5071382;28;20037;-82
2024/02/04 00:54:37;;;;;;;0.10;0.10;;;;;;;12.89;76.22;102449.09;5069001;28;20111;-82
2024/02/04 00:57:05;;;;;;;0.43;0.32;;;;;;;12.87;75.98;102442.91;5072508;28;20043;-81
2024/02/04 00:59:31;;;;;;;0.80;0.80;;;;;;;12.83;75.87;102454.44;5075279;28;20033;-82
2024/02/04 01:01:58;;;;;;;0.10;0.10;;;;;;;12.92;75.83;102433.16;5071552;28;20047;-82
2024/02/04 01:04:27;;;;;;;0.10;0.10;;;;;;;12.90;75.68;102434.91;5064549;28;20033;-82
2024/02/04 01:06:53;;;;;;;0.10;0.10;;;;;;;12.84;75.42;102434.94;5071315;28;20054;-79
2024/02/04 01:09:20;;;;;;;0.15;0.15;;;;;;;12.85;76.09;102425.19;5075843;28;20029;-79
2024/02/04 01:11:46;;;;;;;0.10;0.10;;;;;;;12.83;76.03;102427.84;5080740;28;20036;-81
2024/02/04 01:14:13;;;;;;;0.13;0.13;;;;;;;12.92;75.77;102422.50;5083231;28;20037;-81
2024/02/04 01:16:39;;;;;;;1.27;1.17;;;;;;;13.00;75.07;102424.25;5062033;28;20102;-82
2024/02/04 01:19:05;;;;;;;0.10;0.10;;;;;;;13.03;75.09;102424.22;5064438;28;20039;-82
2024/02/04 01:21:31;;;;;;;0.57;0.57;;;;;;;13.00;75.06;102429.56;5064151;28;20446;-82
2024/02/04 01:23:57;;;;;;;0.20;0.20;;;;;;;12.95;75.02;102437.56;5064488;28;20033;-81
2024/02/04 01:26:24;;;;;;;0.10;0.10;;;;;;;12.93;75.01;102429.59;5068654;28;20032;-81
2024/02/04 01:28:50;;;;;;;0.10;0.10;;;;;;;12.86;75.31;102427.84;5067205;28;20028;-80
2024/02/04 01:31:16;;;;;;;0.82;0.82;;;;;;;12.77;75.16;102438.50;5071314;28;20192;-81
2024/02/04 01:33:43;;;;;;;0.10;0.10;;;;;;;12.68;75.36;102438.56;5067474;28;20480;-80
2024/02/04 01:36:09;;;;;;;0.10;0.10;;;;;;;12.62;75.60;102445.66;5067004;28;20037;-81
2024/02/04 01:38:37;;;;;;;3.72;2.28;;;;;;;12.66;75.63;102448.28;5074423;28;20033;-81
2024/02/04 01:41:04;;;;;;;0.65;0.65;;;;;;;12.65;75.16;102443.88;5063493;28;20447;-80
2024/02/04 01:43:31;;;;;;;0.10;0.10;;;;;;;12.62;75.54;102453.63;5067606;28;20028;-81
2024/02/04 01:45:57;;;;;;;0.10;0.10;;;;;;;12.58;75.62;102454.50;5071341;28;20032;-81
2024/02/04 01:48:24;;;;;;;0.70;0.70;;;;;;;12.52;76.27;102457.19;5060660;28;20557;-81
2024/02/04 01:50:53;;;;;;;10.32;4.22;;;;;;;12.56;75.55;102460.72;5067234;28;20041;-81
2024/02/04 01:53:23;;;;;;;0.30;0.30;;;;;;;12.66;75.66;102464.25;5065400;28;20024;-81
2024/02/04 01:55:50;;;;;;;0.20;0.20;;;;;;;12.70;75.41;102455.41;5066689;28;20377;-81
2024/02/04 01:58:17;;;;;;;0.15;0.15;;;;;;;12.64;75.11;102460.72;5065255;28;20033;-81
2024/02/04 02:00:46;;;;;;;0.20;0.20;;;;;;;12.62;75.45;102461.63;5064493;28;20040;-81
2024/02/04 02:03:14;;;;;;;1.02;0.98;;;;;;;12.64;75.34;102466.06;5068172;28;20507;-81
2024/02/04 02:05:41;;;;;;;1.10;1.10;;;;;;;12.61;75.70;102459.84;5058543;28;20068;-81
2024/02/04 02:08:08;;;;;;;0.22;0.20;;;;;;;12.60;75.15;102463.38;5064178;28;20036;-81
2024/02/04 02:10:34;;;;;;;11.00;0.90;;;;;;;12.58;75.53;102457.19;5062945;28;20029;-81
2024/02/04 02:13:09;;;;;;;0.10;0.10;;;;;;;12.61;74.86;102459.84;5060121;28;20030;-82
2024/02/04 02:15:45;;;;;;;0.30;0.30;;;;;;;12.61;75.21;102462.50;5069527;28;20032;-82
2024/02/04 02:18:23;;;;;;;0.52;0.52;;;;;;;12.64;74.71;102460.72;5072271;28;20028;-82
2024/02/04 02:23:36;;;;;;;0.77;0.77;;;;;;;12.48;74.75;102454.56;5071923;28;20379;-82
2024/02/04 02:26:04;;;;;;;0.65;0.65;;;;;;;12.56;73.94;102458.97;5051470;28;20040;-82
2024/02/04 02:28:30;;;;;;;0.10;0.10;;;;;;;12.61;74.15;102459.84;5046142;28;20029;-82
2024/02/04 02:30:56;;;;;;;0.10;0.10;;;;;;;12.58;74.04;102456.31;5048062;28;20090;-82
2024/02/04 02:33:22;;;;;;;0.63;0.63;;;;;;;12.55;74.00;102443.91;5039109;28;20026;-81
2024/02/04 02:35:56;;;;;;;0.93;0.93;;;;;;;12.52;74.24;102456.31;5047465;28;20029;-81
2024/02/04 02:41:16;;;;;;;1.00;1.00;;;;;;;12.48;74.51;102443.94;5115563;27;20458;-81
2024/02/04 02:43:44;;;;;;;1.13;1.08;;;;;;;12.37;73.73;102443.94;5105653;28;20611;-81
2024/02/04 02:46:11;;;;;;;0.80;0.60;;;;;;;12.38;74.20;102459.88;5094778;28;20024;-81
2024/02/04 02:48:37;;;;;;;0.10;0.10;;;;;;;12.29;74.26;102466.09;5097166;28;20511;-80
2024/02/04 02:51:04;;;;;;;2.00;1.88;;;;;;;12.32;73.89;102451.91;5094213;28;20520;-81
2024/02/04 02:53:31;;;;;;;0.10;0.10;;;;;;;12.23;73.51;102444.84;5103223;28;20036;-81
2024/02/04 02:55:57;;;;;;;0.20;0.20;;;;;;;12.23;73.35;102433.34;5100891;28;20036;-81
2024/02/04 02:58:28;;;;;;;0.30;0.30;;;;;;;12.26;73.49;102451.91;5093614;28;20040;-81
2024/02/04 03:00:57;;;;;;;0.20;0.20;;;;;;;12.15;73.82;102449.28;5097894;28;20034;-81
2024/02/04 03:03:23;;;;;;;0.65;0.60;;;;;;;12.02;73.51;102450.19;5102121;28;20063;-81
2024/02/04 03:05:52;;;;;;;1.48;1.48;;;;;;;12.13;73.65;102445.75;5113941;28;20541;-81
2024/02/04 03:08:18;;;;;;;0.20;0.20;;;;;;;12.19;73.54;102432.44;5100380;28;20039;-82
2024/02/04 03:10:44;;;;;;;0.10;0.10;;;;;;;12.19;73.73;102432.44;5098263;28;20407;-81
2024/02/04 03:13:11;;;;;;;0.17;0.17;;;;;;;12.17;73.15;102431.56;5093286;28;20044;-81
2024/02/04 03:15:37;;;;;;;0.20;0.20;;;;;;;12.16;73.78;102429.78;5101344;28;20028;-82
2024/02/04 03:18:03;;;;;;;0.30;0.30;;;;;;;12.22;74.01;102429.78;5113861;28;20083;-81
2024/02/04 03:20:29;;;;;;;0.10;0.10;;;;;;;12.19;73.63;102429.78;5097701;28;20042;-81
2024/02/04 03:22:56;;;;;;;0.15;0.15;;;;;;;12.16;74.23;102431.56;5113212;28;20125;-81
2024/02/04 03:25:26;;;;;;;0.20;0.20;;;;;;;12.16;73.98;102437.75;5105249;28;20028;-82
2024/02/04 03:27:55;;;;;;;0.65;0.65;;;;;;;12.20;74.19;102423.59;5096102;28;20024;-81
2024/02/04 03:30:21;;;;;;;0.20;0.20;;;;;;;12.20;73.95;102420.03;5098362;28;20032;-81
2024/02/04 03:32:47;;;;;;;0.50;0.50;;;;;;;12.24;74.07;102404.09;5095384;28;20036;-81
2024/02/04 03:35:19;;;;;;;0.10;0.10;;;;;;;12.14;74.58;102423.59;5103687;28;20028;-81
2024/02/04 03:37:45;;;;;;;1.05;1.05;;;;;;;12.15;74.83;102417.41;5098346;28;20060;-81
2024/02/04 03:40:12;;;;;;;0.10;0.10;;;;;;;12.21;74.21;102428.03;5099332;28;20031;-81
2024/02/04 03:42:40;;;;;;;0.10;0.10;;;;;;;12.13;75.03;102425.34;5103170;28;20070;-81
2024/02/04 03:45:07;;;;;;;0.17;0.17;;;;;;;12.15;75.28;102425.38;5093304;28;20123;-81
2024/02/04 03:47:33;;;;;;;0.10;0.10;;;;;;;12.14;74.80;102432.44;5104112;28;20052;-81
2024/02/04 03:49:59;;;;;;;0.57;0.57;;;;;;;12.15;74.87;102438.66;5111328;28;20046;-79
2024/02/04 03:52:25;;;;;;;0.20;0.20;;;;;;;12.18;75.01;102443.97;5088996;28;20416;-80
2024/02/04 03:54:54;;;;;;;0.68;0.68;;;;;;;12.13;75.46;102438.66;5100767;28;20086;-81
2024/02/04 03:57:20;;;;;;;0.68;0.68;;;;;;;12.16;75.48;102444.84;5095029;28;20517;-80
2024/02/04 03:59:46;;;;;;;0.43;0.43;;;;;;;12.07;75.61;102445.75;5097277;28;20027;-81
2024/02/04 04:02:13;;;;;;;0.32;0.32;;;;;;;12.06;75.48;102438.66;5102557;28;20032;-81
2024/02/04 04:04:43;;;;;;;0.25;0.25;;;;;;;11.94;75.81;102448.38;5100623;28;20130;-80
2024/02/04 04:07:09;;;;;;;1.98;1.88;;;;;;;11.91;76.53;102440.41;5095472;28;20029;-81
2024/02/04 04:09:35;;;;;;;0.13;0.13;;;;;;;11.97;75.78;102426.25;5091243;28;20040;-81
2024/02/04 04:12:01;;;;;;;0.10;0.10;;;;;;;11.90;76.79;102422.72;5088202;28;20029;-80
2024/02/04 04:14:27;;;;;;;1.50;1.40;;;;;;;11.88;76.52;102424.47;5082076;28;20535;-82
2024/02/04 04:16:53;;;;;;;0.30;0.30;;;;;;;11.85;76.60;102405.00;5085845;28;20376;-80
2024/02/04 04:19:20;;;;;;;0.20;0.20;;;;;;;11.91;76.04;102397.91;5085582;28;20051;-81
2024/02/04 04:21:46;;;;;;;3.13;1.67;;;;;;;11.84;76.87;102385.53;5083096;28;20406;-80
2024/02/04 04:24:12;;;;;;;0.20;0.20;;;;;;;11.95;75.95;102401.44;5083472;28;20036;-79
2024/02/04 04:26:38;;;;;;;0.10;0.10;;;;;;;11.92;76.63;102398.78;5087020;28;20032;-80
2024/02/04 04:29:04;;;;;;;0.22;0.22;;;;;;;11.89;77.09;102393.50;5081137;28;20088;-80
2024/02/04 04:31:31;;;;;;;0.10;0.10;;;;;;;11.89;76.43;102391.72;5088377;28;20035;-80
2024/02/04 04:33:57;;;;;;;0.40;0.40;;;;;;;11.98;76.25;102391.72;5084571;28;20052;-80
2024/02/04 04:36:23;;;;;;;0.22;0.22;;;;;;;11.92;76.21;102397.00;5086680;28;20039;-80
2024/02/04 04:38:50;;;;;;;0.20;0.20;;;;;;;11.95;75.98;102388.16;5079834;28;20484;-80
2024/02/04 04:41:19;;;;;;;0.40;0.40;;;;;;;11.92;76.74;102385.50;5087913;28;20036;-80
2024/02/04 04:43:45;;;;;;;2.17;2.08;;;;;;;11.85;76.81;102395.25;5095837;28;20023;-79
2024/02/04 04:46:11;;;;;;;0.20;0.20;;;;;;;11.83;76.75;102399.69;5078444;28;20593;-80
2024/02/04 04:48:37;;;;;;;1.08;1.08;;;;;;;11.83;77.24;102386.41;5091706;28;20093;-80
2024/02/04 04:51:04;;;;;;;1.95;1.67;;;;;;;11.81;77.05;102390.81;5086878;28;20392;-80
2024/02/04 04:53:30;;;;;;;0.60;0.60;;;;;;;11.83;76.49;102381.09;5080767;28;20039;-80
2024/02/04 04:55:56;;;;;;;0.10;0.10;;;;;;;11.82;77.06;102395.25;5081383;28;20028;-80
2024/02/04 04:58:22;;;;;;;0.10;0.10;;;;;;;11.76;76.97;102392.59;5080734;28;20104;-80
2024/02/04 05:00:49;;;;;;;0.35;0.35;;;;;;;11.77;77.31;102383.75;5078026;28;20021;-80
2024/02/04 05:03:15;;;;;;;1.45;0.93;;;;;;;11.78;77.63;102364.28;5077135;28;20028;-80
2024/02/04 05:05:41;;;;;;;0.35;0.35;;;;;;;11.83;76.69;102359.84;5088224;28;20023;-81
2024/02/04 05:08:07;;;;;;;0.50;0.50;;;;;;;11.70;77.18;102366.94;5079430;28;20036;-80
2024/02/04 05:10:33;;;;;;;9.18;3.50;;;;;;;11.65;78.34;102380.22;5078002;28;20032;-80
2024/02/04 05:12:59;;;;;;;0.43;0.43;;;;;;;11.70;78.10;102381.97;5081365;28;20025;-80
2024/02/04 05:15:26;;;;;;;0.10;0.10;;;;;;;11.83;77.62;102373.13;5083473;28;20403;-80
2024/02/04 05:17:52;;;;;;;0.30;0.30;;;;;;;11.83;77.18;102370.47;5090543;28;20106;-81
2024/02/04 05:20:18;;;;;;;0.43;0.43;;;;;;;11.93;77.26;102374.88;5080207;28;20064;-81
2024/02/04 05:22:44;;;;;;;0.45;0.35;;;;;;;12.00;77.01;102382.88;5085249;28;20158;-80
2024/02/04 05:25:10;;;;;;;1.52;1.42;;;;;;;11.96;76.49;102369.59;5094124;28;20024;-80
2024/02/04 05:27:37;;;;;;;1.10;0.40;;;;;;;11.96;77.04;102359.00;5094012;28;20047;-80
2024/02/04 05:30:04;;;;;;;0.10;0.10;;;;;;;11.96;76.58;102353.69;5086094;28;20103;-81
2024/02/04 05:32:30;;;;;;;0.10;0.10;;;;;;;11.92;76.69;102350.97;5078713;28;20032;-80
2024/02/04 05:34:57;;;;;;;0.10;0.10;;;;;;;11.97;77.19;102360.75;5086025;28;20054;-81
2024/02/04 05:37:23;;;;;;;0.30;0.30;;;;;;;11.94;77.17;102370.47;5077455;28;20036;-81
2024/02/04 05:39:49;;;;;;;0.15;0.15;;;;;;;11.92;77.02;102362.47;5081530;28;20552;-80
2024/02/04 05:42:15;;;;;;;0.10;0.10;;;;;;;12.00;76.74;102358.97;5086941;28;20040;-80
2024/02/04 05:44:41;;;;;;;0.20;0.20;;;;;;;11.97;77.23;102365.16;5078965;28;20479;-81
2024/02/04 05:47:08;;;;;;;0.15;0.15;;;;;;;11.84;76.96;102364.28;5082952;28;20036;-81
2024/02/04 05:49:34;;;;;;;0.15;0.15;;;;;;;12.01;76.81;102350.13;5086964;28;20127;-81
2024/02/04 05:52:00;;;;;;;0.20;0.20;;;;;;;12.02;76.62;102354.53;5094828;28;20036;-80
2024/02/04 05:54:26;;;;;;;1.30;1.27;;;;;;;11.95;76.58;102343.00;5076660;28;20032;-80
2024/02/04 05:56:53;;;;;;;0.68;0.68;;;;;;;11.90;76.41;102351.00;5077912;28;20041;-80
2024/02/04 05:59:19;;;;;;;1.00;1.00;;;;;;;11.83;76.53;102367.81;5084154;28;20083;-80
2024/02/04 06:01:48;;;;;;;0.47;0.47;;;;;;;11.93;76.52;102347.44;5079590;28;20427;-81
2024/02/04 06:04:14;;;;;;;1.02;0.52;;;;;;;11.86;76.28;102349.19;5077485;28;20035;-80
2024/02/04 06:06:40;;;;;;;0.20;0.20;;;;;;;11.90;77.03;102344.78;5088530;28;20050;-80
2024/02/04 06:09:08;;;;;;;0.10;0.10;;;;;;;11.87;76.69;102336.84;5099508;28;20119;-81
2024/02/04 06:11:34;;;;;;;0.20;0.20;;;;;;;11.84;76.28;102340.38;5081777;28;20043;-80
2024/02/04 06:14:00;;;;;;;0.20;0.20;;;;;;;11.88;76.98;102339.47;5081113;28;20403;-80
2024/02/04 06:16:27;;;;;;;0.20;0.20;;;;;;;11.92;77.02;102319.97;5086322;28;20085;-80
2024/02/04 06:18:57;;;;;;;0.10;0.10;;;;;;;11.92;76.43;102327.94;5081120;28;20035;-80
2024/02/04 06:21:23;;;;;;;0.75;0.75;;;;;;;11.83;76.19;102341.25;5077816;28;20036;-81
2024/02/04 06:23:49;;;;;;;0.20;0.20;;;;;;;11.79;77.49;102326.22;5077778;28;20028;-81
2024/02/04 06:26:16;;;;;;;0.10;0.10;;;;;;;11.81;76.44;102330.66;5078235;28;20039;-81
2024/02/04 06:28:46;;;;;;;0.20;0.20;;;;;;;11.85;76.87;102328.88;5090091;28;20078;-80
2024/02/04 06:31:12;;;;;;;0.38;0.38;;;;;;;11.91;76.33;102331.53;5094955;28;20053;-80
2024/02/04 06:33:42;;;;;;;0.22;0.22;;;;;;;11.86;77.34;102325.31;5085657;28;20028;-81
2024/02/04 06:36:10;;;;;;;0.60;0.60;;;;;;;11.97;77.04;102334.19;5091588;28;20031;-80
2024/02/04 06:38:36;;;;;;;0.10;0.10;;;;;;;11.96;76.34;102332.44;5084192;28;20399;-82
2024/02/04 06:41:02;;;;;;;0.68;0.68;;;;;;;12.06;76.63;102327.06;5088532;28;20469;-81
2024/02/04 06:43:29;;;;;;;0.10;0.10;;;;;;;12.10;76.50;102320.84;5086960;28;20033;-81
2024/02/04 06:45:58;;;;;;;0.20;0.20;;;;;;;12.03;76.22;102332.41;5095184;28;20035;-80
2024/02/04 06:48:24;;;;;;;0.70;0.70;;;;;;;12.14;76.67;102325.28;5093380;28;20028;-81
2024/02/04 06:50:50;;;;;;;0.10;0.10;;;;;;;12.07;76.47;102334.16;5081750;28;20032;-80
2024/02/04 06:53:16;;;;;;;0.10;0.10;;;;;;;12.17;76.38;102319.97;5090281;28;20157;-81
2024/02/04 06:55:45;;;;;;;0.10;0.10;;;;;;;12.23;76.28;102319.94;5080787;28;20028;-82
2024/02/04 06:58:11;;;;;;;0.10;0.10;;;;;;;12.14;76.13;102325.28;5087057;28;20047;-81
2024/02/04 07:00:38;;;;;;;0.10;0.10;;;;;;;12.18;76.22;102331.50;5084465;28;20029;-82
2024/02/04 07:03:04;;;;;;;0.73;0.73;;;;;;;12.17;76.36;102330.59;5093097;28;20028;-81
2024/02/04 07:05:33;;;;;;;2.72;2.47;;;;;;;12.17;76.26;102333.25;5079710;28;20040;-81
2024/02/04 07:07:59;;;;;;;0.45;0.20;;;;;;;12.12;76.43;102316.44;5089156;28;20024;-81
2024/02/04 07:10:29;;;;;;;0.43;0.43;;;;;;;12.19;75.66;102315.53;5093642;28;20035;-81
2024/02/04 07:12:55;;;;;;;0.38;0.38;;;;;;;12.19;75.42;102323.50;5096339;28;20047;-80
2024/02/04 07:15:21;;;;;;;0.10;0.10;;;;;;;12.24;75.54;102311.09;5091044;28;20514;-81
2024/02/04 07:17:47;;;;;;;1.38;1.27;;;;;;;12.22;75.60;102326.13;5088195;28;20096;-82
2024/02/04 07:20:14;;;;;;;4.07;1.92;;;;;;;12.02;76.12;102320.88;5076808;28;20051;-82
2024/02/04 07:22:40;;;;;;;0.40;0.40;;;;;;;12.11;75.38;102320.88;5096354;28;20051;-81
2024/02/04 07:25:07;;;;;;;0.10;0.10;;;;;;;12.12;76.11;102308.47;5080234;28;20103;-81
2024/02/04 07:27:33;;;;;;;0.10;0.10;;;;;;;12.10;75.85;102296.94;5080818;28;20031;-81
2024/02/04 07:29:59;;;;;;;0.10;0.10;;;;;;;12.21;75.22;102304.91;5078972;28;20025;-80
2024/02/04 07:32:26;;;;;;;0.10;0.10;;;;;;;12.16;75.28;102299.59;5096643;28;20437;-82
2024/02/04 07:34:52;;;;;;;0.10;0.10;;;;;;;12.11;75.99;102301.38;5082985;28;20029;-81
2024/02/04 07:37:18;;;;;;;0.20;0.20;;;;;;;12.05;76.37;102304.06;5092621;28;20459;-80
2024/02/04 07:39:44;;;;;;;0.57;0.57;;;;;;;12.09;76.46;102311.16;5078986;28;20028;-81
2024/02/04 07:42:13;;;;;;;2.83;2.58;;;;;;;12.11;76.50;102304.03;5092211;28;20067;-80
2024/02/04 07:44:40;;;;;;;0.10;0.10;;;;;;;11.94;77.17;102318.22;5092024;28;20047;-80
2024/02/04 07:47:06;;;;;;;6.72;1.33;;;;;;;12.13;77.05;102307.59;5082986;28;20036;-80
2024/02/04 07:49:32;;;;;;;1.05;1.00;;;;;;;12.10;77.15;102308.47;5086491;28;20020;-80
2024/02/04 07:52:01;;;;;;;0.20;0.20;;;;;;;12.10;76.76;102310.22;5086608;28;20507;-80
2024/02/04 07:54:27;;;;;;;0.20;0.20;;;;;;;12.12;76.69;102324.41;5084943;28;20044;-80
2024/02/04 07:56:54;;;;;;;0.10;0.10;;;;;;;12.03;77.69;102311.16;5079645;28;20107;-80
2024/02/04 07:59:20;;;;;;;0.10;0.10;;;;;;;12.13;77.10;102304.94;5083568;28;20033;-81
2024/02/04 08:01:46;;;;;;;0.10;0.10;;;;;;;12.19;77.02;102315.53;5081340;28;20032;-81
2024/02/04 08:04:12;;;;;;;0.52;0.40;;;;;;;12.13;77.19;102303.13;5082230;28;20442;-80
2024/02/04 08:06:41;;;;;;;0.13;0.13;;;;;;;12.18;77.44;102300.47;5081726;28;20507;-80
2024/02/04 08:09:08;;;;;;;0.10;0.10;;;;;;;12.23;76.69;102298.69;5081059;28;20032;-80
2024/02/04 08:11:34;;;;;;;0.10;0.10;;;;;;;12.15;77.34;102300.50;5093507;28;20024;-80
2024/02/04 08:14:00;;;;;;;1.08;1.08;;;;;;;12.20;76.54;102304.03;5097621;28;20095;-80
2024/02/04 08:16:26;;;;;;;0.10;0.10;;;;;;;12.09;77.05;102305.84;5098374;28;20027;-79
2024/02/04 08:18:53;;;;;;;0.10;0.10;;;;;;;12.21;76.73;102315.53;5098148;28;20028;-80
2024/02/04 08:21:19;;;;;;;0.10;0.10;;;;;;;12.27;76.29;102299.56;5096982;28;20024;-81
2024/02/04 08:23:45;;;;;;;0.10;0.10;;;;;;;12.23;76.71;102303.13;5093504;28;20032;-81
2024/02/04 08:26:11;;;;;;;0.30;0.30;;;;;;;12.28;76.94;102307.53;5094867;28;20028;-82
2024/02/04 08:28:37;;;;;;;0.10;0.10;;;;;;;12.33;75.80;102309.28;5079206;28;20503;-80
2024/02/04 08:31:04;;;;;;;0.70;0.65;;;;;;;12.22;76.65;102314.63;5080628;28;20028;-81
2024/02/04 08:33:30;;;;;;;0.30;0.30;;;;;;;12.29;76.16;102298.66;5078787;28;20059;-81
2024/02/04 08:35:56;;;;;;;0.20;0.20;;;;;;;12.35;75.91;102307.50;5078850;28;20024;-81
2024/02/04 08:38:22;;;;;;;0.10;0.10;;;;;;;12.30;75.54;102300.44;5079865;28;20036;-81
2024/02/04 08:40:49;;;;;;;0.10;0.10;;;;;;;12.36;75.46;102301.28;5078622;28;20020;-81
2024/02/04 08:43:15;;;;;;;0.20;0.20;;;;;;;12.33;75.66;102301.31;5075610;28;20032;-81
2024/02/04 08:45:42;;;;;;;0.47;0.47;;;;;;;12.37;76.05;102287.13;5083352;28;20028;-81
2024/02/04 08:48:08;;;;;;;0.43;0.43;;;;;;;12.20;76.00;102280.09;5092545;28;20028;-83
2024/02/04 08:50:34;;;;;;;0.15;0.15;;;;;;;12.28;75.55;102286.25;5083979;28;20496;-82
2024/02/04 08:53:00;;;;;;;2.03;1.85;;;;;;;12.33;75.85;102288.03;5076520;28;20101;-80
2024/02/04 08:55:27;;;;;;;0.10;0.10;;;;;;;12.40;75.21;102295.06;5077385;28;20043;-81
2024/02/04 08:57:53;;;;;;;0.10;0.10;;;;;;;12.54;74.98;102287.91;5080843;28;20035;-80
2024/02/04 09:00:20;;;;;;;0.10;0.10;;;;;;;12.37;75.49;102292.44;5083605;28;20034;-81
2024/02/04 09:02:46;;;;;;;0.10;0.10;;;;;;;12.44;75.61;102294.19;5080028;28;20028;-81
2024/02/04 09:05:12;;;;;;;0.05;0.05;;;;;;;12.36;75.46;102293.31;5077620;28;20141;-80
2024/02/04 09:07:39;;;;;;;0.20;0.20;;;;;;;12.48;75.22;102295.06;5077981;28;20526;-80
2024/02/04 09:10:07;;;;;;;0.10;0.10;;;;;;;12.44;75.19;102292.41;5085479;28;20081;-81
2024/02/04 09:12:33;;;;;;;0.10;0.10;;;;;;;12.49;75.50;102299.50;5079703;28;20085;-81
2024/02/04 09:14:59;;;;;;;0.15;0.15;;;;;;;12.48;74.86;102298.59;5090717;28;20039;-82
2024/02/04 09:17:25;;;;;;;0.10;0.10;;;;;;;12.51;74.54;102309.22;5096951;28;20509;-80
2024/02/04 09:19:53;;;;;;;0.10;0.10;;;;;;;12.65;74.39;102297.59;5078357;28;20050;-79
2024/02/04 09:22:19;;;;;;;0.10;0.10;;;;;;;12.60;74.48;102298.53;5080039;28;20029;-82
2024/02/04 09:24:45;;;;;;;0.10;0.10;;;;;;;12.67;74.04;102298.50;5078197;28;20028;-81
2024/02/04 09:27:11;;;;;;;0.10;0.10;;;;;;;12.70;74.30;102291.38;5076798;28;20029;-81
2024/02/04 09:29:37;;;;;;;0.10;0.10;;;;;;;12.65;73.91;102292.28;5077772;28;20032;-82
2024/02/04 09:32:04;;;;;;;0.10;0.10;;;;;;;12.55;74.41;102312.75;5079473;28;20135;-81
2024/02/04 09:34:30;;;;;;;0.10;0.10;;;;;;;12.50;73.91;102306.53;5077518;28;20043;-83
2024/02/04 09:36:56;;;;;;;0.10;0.10;;;;;;;12.50;73.92;102296.81;5076629;28;20711;-81
2024/02/04 09:39:22;;;;;;;0.40;0.40;;;;;;;12.61;73.25;102300.31;5080557;28;20055;-82
2024/02/04 09:41:49;;;;;;;0.10;0.10;;;;;;;12.71;73.05;102300.25;5080370;28;20024;-82
2024/02/04 09:44:16;;;;;;;0.10;0.10;;;;;;;12.64;73.67;102298.53;5076068;28;20024;-83
2024/02/04 09:46:42;;;;;;;0.28;0.28;;;;;;;12.73;72.84;102293.16;5089425;28;20631;-82
2024/02/04 09:49:10;;;;;;;0.00;0.00;;;;;;;12.62;73.07;102295.84;5088395;28;20035;-82
2024/02/04 09:51:37;;;;;;;0.10;0.10;;;;;;;12.76;72.76;102295.78;5096975;28;20093;-82
2024/02/04 09:54:06;;;;;;;0.20;0.20;;;;;;;12.64;73.15;102338.41;5085595;28;20046;-83
2024/02/04 09:56:35;;;;;;;0.10;0.10;;;;;;;12.75;73.28;102302.00;5082974;28;20035;-83
2024/02/04 09:59:02;;;;;;;0.10;0.10;;;;;;;12.59;73.87;102302.06;5076785;28;20028;-83
2024/02/04 10:01:28;;;;;;;0.35;0.30;;;;;;;12.49;74.24;102311.00;5076003;28;20024;-83
2024/02/04 10:03:54;;;;;;;0.10;0.10;;;;;;;12.56;74.12;102304.75;5077258;28;20107;-81
2024/02/04 10:06:21;;;;;;;0.10;0.10;;;;;;;12.55;75.04;102305.66;5087107;28;20117;-83
2024/02/04 10:08:47;;;;;;;0.10;0.10;;;;;;;12.43;75.80;102301.25;5088442;28;20550;-81
2024/02/04 10:11:14;;;;;;;0.08;0.08;;;;;;;12.34;76.74;102305.75;5090238;28;20024;-81
2024/02/04 10:13:45;;;;;;;0.05;0.05;;;;;;;12.35;76.41;102312.81;5100703;28;20035;-80
2024/02/04 10:16:12;;;;;;;0.10;0.10;;;;;;;12.35;76.91;102296.88;5089537;28;20073;-81
2024/02/04 10:18:43;;;;;;;0.20;0.20;;;;;;;12.36;76.78;102298.63;5097504;28;20040;-81
2024/02/04 10:21:25;;;;;;;0.20;0.20;;;;;;;12.39;76.80;102294.19;5096171;28;20024;-80
2024/02/04 10:23:51;;;;;;;0.17;0.17;;;;;;;12.49;75.92;102300.34;5099119;28;20035;-80
2024/02/04 10:26:20;;;;;;;0.10;0.10;;;;;;;12.35;77.32;102297.75;5092039;28;20021;-80
2024/02/04 10:28:47;;;;;;;0.10;0.10;;;;;;;12.39;76.91;102318.13;5097154;28;20490;-80
2024/02/04 10:31:13;;;;;;;0.32;0.32;;;;;;;12.45;77.44;102314.56;5097214;28;20024;-79
2024/02/04 10:33:40;;;;;;;0.10;0.10;;;;;;;12.47;77.40;102302.13;5078503;28;20032;-79
2024/02/04 10:36:06;;;;;;;0.20;0.20;;;;;;;12.32;77.29;102312.84;5084706;28;20031;-79
2024/02/04 10:38:33;;;;;;;0.30;0.30;;;;;;;12.48;77.16;102321.63;5094754;28;20024;-80
2024/02/04 10:41:02;;;;;;;0.10;0.10;;;;;;;12.42;77.62;102314.56;5094999;28;20047;-80
2024/02/04 10:43:33;;;;;;;0.43;0.43;;;;;;;12.44;77.75;102294.19;5088638;28;20028;-80
2024/02/04 10:46:09;;;;;;;0.10;0.10;;;;;;;12.43;77.51;102280.00;5097000;28;20388;-79
2024/02/04 10:48:41;;;;;;;0.10;0.10;;;;;;;12.38;77.40;102312.81;5098435;28;20024;-80
2024/02/04 10:51:12;;;;;;;;;;;;;;;12.56;77.10;102307.41;5100194;28;20028;-80
2024/02/04 10:53:41;;;;;;;0.10;0.10;;;;;;;12.52;77.11;102299.47;5098420;28;19912;-79
2024/02/04 10:56:12;;;;;;;0.10;0.10;;;;;;;12.40;77.13;102292.41;5099143;28;20430;-79
2024/02/04 10:58:39;;;;;;;0.10;0.10;;;;;;;12.60;76.47;102282.56;5095764;28;20081;-80
2024/02/04 11:01:06;;;;;;;0.10;0.10;;;;;;;12.47;76.97;102291.50;5097694;28;20069;-79
2024/02/04 11:03:33;;;;;;;0.10;0.10;;;;;;;12.47;77.18;102280.88;5100814;28;20387;-81
2024/02/04 11:06:00;;;;;;;0.10;0.10;;;;;;;12.58;76.17;102275.50;5100930;28;20123;-81
2024/02/04 11:08:26;;;;;;;0.68;0.68;;;;;;;12.52;76.80;102275.53;5100524;28;20515;-81
2024/02/04 11:10:52;;;;;;;0.10;0.10;;;;;;;12.52;76.80;102267.56;5099635;28;20103;-81
2024/02/04 11:13:22;;;;;;;0.10;0.10;;;;;;;12.47;76.84;102272.88;5101970;28;20039;-82
2024/02/04 11:15:49;;;;;;;0.20;0.20;;;;;;;12.63;76.66;102289.66;5102030;28;20028;-81
2024/02/04 11:26:48;;;;;;;0.57;0.57;;;;;;;12.79;75.71;102283.34;5107295;27;20416;-81
2024/02/04 11:29:14;;;;;;;0.10;0.10;;;;;;;12.81;75.19;102267.41;5101835;28;20096;-80
2024/02/04 11:31:41;;;;;;;0.43;0.43;;;;;;;12.82;75.26;102274.47;5110985;28;20039;-81
2024/02/04 11:34:08;;;;;;;3.42;2.55;;;;;;;12.83;75.36;102273.56;5111645;28;20550;-80
2024/02/04 11:36:41;;;;;;;0.52;0.52;;;;;;;12.89;74.67;102273.53;5115428;28;20020;-79